Time;durP1;ratioP1;P1;durP2;ratioP2;P2;SDS_P1;SDS_P2;PMS_P1;PMS_P2;Temp;Humidity;BMP_temperature;BMP_pressure;BME280_temperature;BME280_humidity;BME280_pressure;Samples;Min_cycle;Max_cycle;Signal;HPM_P1;HPM_P2
2022/06/06 00:00:01;;;;;;;15.73;9.68;;;14.70;99.90;;;;;;5076457;28;20067;-85
2022/06/06 00:02:29;;;;;;;13.05;10.32;;;14.70;99.90;;;;;;5093174;28;20048;-86
2022/06/06 00:04:56;;;;;;;14.18;11.27;;;14.60;99.90;;;;;;5076177;28;20086;-86
2022/06/06 00:07:22;;;;;;;14.05;12.15;;;14.50;99.90;;;;;;5092998;28;20028;-85
2022/06/06 00:09:48;;;;;;;17.10;13.68;;;14.40;99.90;;;;;;5075435;28;20031;-85
2022/06/06 00:12:15;;;;;;;17.80;14.07;;;14.30;99.90;;;;;;5093851;28;20024;-85
2022/06/06 00:14:42;;;;;;;19.58;15.10;;;14.30;99.90;;;;;;5075476;28;20093;-85
2022/06/06 00:17:08;;;;;;;21.42;15.10;;;14.30;99.90;;;;;;5076347;28;20032;-85
2022/06/06 00:19:34;;;;;;;23.55;16.10;;;14.40;99.90;;;;;;5092809;28;20042;-85
2022/06/06 00:22:06;;;;;;;32.55;16.95;;;14.40;99.90;;;;;;5092734;28;20040;-86
2022/06/06 00:24:32;;;;;;;24.38;16.17;;;14.40;99.90;;;;;;5075333;28;20032;-86
2022/06/06 00:26:59;;;;;;;19.75;15.52;;;14.50;99.90;;;;;;5075528;28;20071;-85
2022/06/06 00:29:26;;;;;;;24.88;17.13;;;14.40;99.90;;;;;;5092831;28;20034;-85
2022/06/06 00:34:48;;;;;;;23.23;16.23;;;14.30;99.90;;;;;;5092219;28;20089;-86
2022/06/06 00:37:17;;;;;;;19.80;15.80;;;14.40;99.90;;;;;;5075827;28;20042;-85
2022/06/06 00:39:44;;;;;;;24.30;16.23;;;14.30;99.90;;;;;;5092362;28;20027;-85
2022/06/06 00:42:18;;;;;;;20.55;15.20;;;14.30;99.90;;;;;;5075313;28;20028;-85
2022/06/06 00:44:43;;;;;;;19.67;14.93;;;14.20;99.90;;;;;;5091865;28;20038;-85
2022/06/06 00:47:09;;;;;;;26.27;16.33;;;14.20;99.90;;;;;;5075137;28;20036;-85
2022/06/06 00:49:38;;;;;;;25.70;18.17;;;14.10;99.90;;;;;;5075135;28;20101;-85
2022/06/06 00:52:18;;;;;;;21.92;16.17;;;14.10;99.90;;;;;;5075125;28;20036;-85
2022/06/06 00:54:46;;;;;;;30.83;21.35;;;14.00;99.90;;;;;;5074578;28;20043;-86
2022/06/06 00:57:18;;;;;;;33.45;21.73;;;14.00;99.90;;;;;;5074826;28;20031;-84
2022/06/06 00:59:45;;;;;;;33.60;22.77;;;14.00;99.90;;;;;;5091542;28;20028;-85
2022/06/06 01:02:13;;;;;;;35.25;22.15;;;14.00;99.90;;;;;;5091666;28;20047;-85
2022/06/06 01:05:02;;;;;;;29.33;22.63;;;14.00;99.90;;;;;;5091667;28;20057;-85
2022/06/06 01:07:34;;;;;;;39.10;24.83;;;14.00;99.90;;;;;;5074817;28;20027;-86
2022/06/06 01:10:01;;;;;;;33.55;23.25;;;14.00;99.90;;;;;;5074618;28;20027;-85
2022/06/06 01:12:31;;;;;;;35.80;23.90;;;14.00;99.90;;;;;;5091399;28;20032;-86
2022/06/06 01:15:04;;;;;;;37.13;24.30;;;14.00;99.90;;;;;;5074368;28;20081;-84
2022/06/06 01:17:52;;;;;;;36.00;25.70;;;14.00;99.90;;;;;;5091510;28;20096;-85
2022/06/06 01:20:39;;;;;;;35.15;24.80;;;14.00;99.90;;;;;;5090901;28;20064;-85
2022/06/06 01:23:08;;;;;;;41.35;28.52;;;14.00;99.90;;;;;;5074209;28;20127;-85
2022/06/06 01:26:11;;;;;;;43.88;28.45;;;14.10;99.90;;;;;;5091269;28;20036;-85
2022/06/06 01:28:51;;;;;;;43.78;30.63;;;14.10;99.90;;;;;;5074379;28;20040;-85
2022/06/06 01:31:33;;;;;;;39.55;26.70;;;14.10;99.90;;;;;;5091672;28;20074;-85
2022/06/06 01:34:03;;;;;;;39.03;26.52;;;14.00;99.90;;;;;;5073829;28;20065;-85
2022/06/06 01:36:31;;;;;;;40.22;28.15;;;14.00;99.90;;;;;;5091404;28;20024;-85
2022/06/06 01:39:01;;;;;;;44.47;27.83;;;13.90;99.90;;;;;;5091645;28;20031;-85
2022/06/06 01:41:56;;;;;;;45.75;28.10;;;13.90;99.90;;;;;;5074412;28;20089;-85
2022/06/06 01:44:52;;;;;;;38.95;27.58;;;13.90;99.90;;;;;;5050422;28;20043;-85
2022/06/06 01:47:37;;;;;;;40.88;27.40;;;13.90;99.90;;;;;;5074566;28;20123;-85
2022/06/06 01:50:04;;;;;;;36.53;26.13;;;13.90;99.90;;;;;;5074670;28;20028;-85
2022/06/06 01:52:47;;;;;;;36.03;26.33;;;13.90;99.90;;;;;;5091671;28;20066;-85
2022/06/06 01:55:13;;;;;;;44.08;27.05;;;13.90;99.90;;;;;;5074462;28;20409;-85
2022/06/06 01:57:38;;;;;;;45.10;29.48;;;13.90;99.90;;;;;;5074820;28;20120;-85
2022/06/06 02:00:05;;;;;;;39.45;25.63;;;13.90;99.90;;;;;;5074777;28;20771;-86
2022/06/06 02:02:31;;;;;;;42.58;28.70;;;13.90;99.90;;;;;;5091848;28;20059;-85
2022/06/06 02:05:31;;;;;;;42.35;25.10;;;13.90;99.90;;;;;;5074155;28;20028;-85
2022/06/06 02:07:57;;;;;;;40.47;26.88;;;13.90;99.90;;;;;;5074067;28;20828;-85
2022/06/06 02:10:24;;;;;;;41.65;28.25;;;13.80;99.90;;;;;;5074619;28;20085;-84
2022/06/06 02:12:49;;;;;;;38.67;27.30;;;13.80;99.90;;;;;;5074337;28;20039;-85
2022/06/06 02:15:19;;;;;;;44.22;28.52;;;13.80;99.90;;;;;;5091189;28;20395;-86
2022/06/06 02:17:45;;;;;;;40.22;26.42;;;13.70;99.90;;;;;;5074415;28;20020;-85
2022/06/06 02:20:13;;;;;;;37.33;26.48;;;13.70;99.90;;;;;;5074336;28;20052;-85
2022/06/06 02:22:39;;;;;;;38.17;26.25;;;13.60;99.90;;;;;;5074472;28;20372;-85
2022/06/06 02:25:06;;;;;;;54.63;28.65;;;13.70;99.90;;;;;;5074319;28;20042;-86
2022/06/06 02:27:33;;;;;;;42.28;29.35;;;13.80;99.90;;;;;;5091207;28;20177;-85
2022/06/06 02:30:00;;;;;;;40.70;29.73;;;13.80;99.90;;;;;;5091371;28;20032;-85
2022/06/06 02:32:25;;;;;;;48.28;31.42;;;13.90;99.90;;;;;;5075617;28;20752;-86
2022/06/06 02:34:51;;;;;;;44.78;30.55;;;13.90;99.90;;;;;;5095623;28;20032;-86
2022/06/06 02:37:17;;;;;;;43.67;30.13;;;13.90;99.90;;;;;;5095113;28;20567;-86
2022/06/06 02:39:43;;;;;;;46.40;30.35;;;14.00;99.90;;;;;;5078123;28;20501;-85
2022/06/06 02:42:09;;;;;;;46.22;33.00;;;14.00;99.90;;;;;;5077224;28;20038;-85
2022/06/06 02:44:34;;;;;;;46.17;31.70;;;14.00;99.90;;;;;;5077603;28;20032;-85
2022/06/06 02:47:00;;;;;;;44.42;31.30;;;14.00;99.90;;;;;;5094822;28;20043;-85
2022/06/06 02:49:26;;;;;;;47.70;32.00;;;14.00;99.90;;;;;;5077686;28;20031;-85
2022/06/06 02:51:52;;;;;;;47.30;30.60;;;14.00;99.90;;;;;;5077552;28;20123;-86
2022/06/06 02:54:17;;;;;;;48.20;32.92;;;14.00;99.90;;;;;;5077467;28;20063;-85
2022/06/06 02:56:43;;;;;;;45.38;32.78;;;14.00;99.90;;;;;;5077616;28;20114;-85
2022/06/06 02:59:09;;;;;;;50.90;33.60;;;14.10;99.90;;;;;;5077886;28;20028;-85
2022/06/06 03:01:36;;;;;;;46.42;31.65;;;14.10;99.90;;;;;;5077677;28;20032;-86
2022/06/06 03:04:02;;;;;;;48.83;31.25;;;14.10;99.90;;;;;;5077658;28;20067;-85
2022/06/06 03:06:56;;;;;;;40.50;29.95;;;14.00;99.90;;;;;;5077680;28;20030;-85
2022/06/06 03:09:37;;;;;;;43.80;30.60;;;14.00;99.90;;;;;;5077579;28;20131;-86
2022/06/06 03:12:28;;;;;;;51.90;31.05;;;13.90;99.90;;;;;;5077558;28;20040;-85
2022/06/06 03:14:57;;;;;;;41.40;29.33;;;13.80;99.90;;;;;;5093303;28;20869;-86
2022/06/06 03:20:47;;;;;;;51.33;32.53;;;13.70;99.90;;;;;;5093847;28;20062;-86
2022/06/06 03:23:41;;;;;;;55.58;32.47;;;13.70;99.90;;;;;;5093681;28;20383;-85
2022/06/06 03:26:37;;;;;;;42.92;29.00;;;13.80;99.90;;;;;;5076812;28;20032;-84
2022/06/06 03:29:34;;;;;;;45.10;29.17;;;13.80;99.90;;;;;;5076503;28;20085;-84
2022/06/06 03:32:56;;;;;;;47.53;30.67;;;13.70;99.90;;;;;;5093474;28;20032;-85
2022/06/06 03:35:39;;;;;;;51.88;31.98;;;13.70;99.90;;;;;;5093170;28;20123;-84
2022/06/06 03:38:14;;;;;;;48.38;32.17;;;13.80;99.90;;;;;;5077000;28;20032;-84
2022/06/06 03:40:42;;;;;;;51.70;34.38;;;13.90;99.90;;;;;;5093660;28;20371;-84
2022/06/06 03:43:45;;;;;;;55.15;34.35;;;14.00;99.90;;;;;;5076174;28;20020;-84
2022/06/06 03:46:50;;;;;;;48.90;32.83;;;14.00;99.90;;;;;;5076738;28;20032;-83
2022/06/06 03:49:39;;;;;;;45.22;31.83;;;14.10;99.90;;;;;;5076180;28;20036;-84
2022/06/06 03:52:58;;;;;;;46.65;32.28;;;14.10;99.90;;;;;;5076870;28;20483;-84
2022/06/06 03:55:36;;;;;;;44.40;31.90;;;14.10;99.90;;;;;;5015742;28;20061;-83
2022/06/06 03:58:03;;;;;;;42.85;29.00;;;14.10;99.90;;;;;;5076559;28;20525;-84
2022/06/06 04:00:32;;;;;;;42.08;28.70;;;14.10;99.90;;;;;;5076310;28;20051;-83
2022/06/06 04:03:00;;;;;;;41.60;29.00;;;14.20;99.90;;;;;;5076068;28;20028;-85
2022/06/06 04:05:27;;;;;;;39.47;28.10;;;14.20;99.90;;;;;;5075759;28;20055;-84
2022/06/06 04:07:53;;;;;;;37.45;25.92;;;14.30;99.90;;;;;;5092018;28;20028;-84
2022/06/06 04:10:22;;;;;;;35.92;24.77;;;14.30;99.90;;;;;;5075839;28;20035;-84
2022/06/06 04:13:10;;;;;;;33.78;24.73;;;14.40;99.90;;;;;;5092664;28;20039;-83
2022/06/06 04:16:00;;;;;;;30.45;22.80;;;14.40;99.90;;;;;;5076091;28;20131;-84
2022/06/06 04:18:41;;;;;;;31.20;22.50;;;14.40;99.90;;;;;;5076060;28;20059;-84
2022/06/06 04:21:31;;;;;;;32.67;21.93;;;14.40;99.90;;;;;;5075904;28;20031;-84
2022/06/06 04:24:12;;;;;;;32.92;23.90;;;14.50;99.90;;;;;;5075674;28;20024;-84
2022/06/06 04:26:45;;;;;;;30.55;23.50;;;14.60;99.90;;;;;;5075780;28;20480;-84
2022/06/06 04:29:14;;;;;;;42.63;30.23;;;14.50;99.90;;;;;;5092560;28;20057;-84
2022/06/06 04:32:21;;;;;;;571.03;288.98;;;14.50;99.90;;;;;;5075578;28;20031;-84
2022/06/06 04:35:36;;;;;;;38.78;26.45;;;14.50;99.90;;;;;;4998458;28;20042;-84
2022/06/06 04:38:17;;;;;;;32.58;22.75;;;14.50;99.90;;;;;;4998390;28;20069;-83
2022/06/06 04:45:16;;;;;;;30.35;21.30;;;14.60;99.90;;;;;;5093605;28;20062;-84
2022/06/06 04:47:42;;;;;;;30.35;22.00;;;14.60;99.90;;;;;;5056135;28;20515;-84
2022/06/06 04:50:14;;;;;;;29.73;20.52;;;14.70;99.90;;;;;;5074778;28;20101;-84
2022/06/06 04:52:44;;;;;;;22.67;18.88;;;14.80;99.90;;;;;;5074632;28;20035;-83
2022/06/06 04:55:11;;;;;;;24.77;18.77;;;14.90;99.90;;;;;;5091264;28;20055;-84
2022/06/06 04:57:47;;;;;;;25.67;17.73;;;14.90;99.90;;;;;;5091006;28;20472;-83
2022/06/06 05:00:14;;;;;;;24.25;19.48;;;14.90;99.90;;;;;;5074435;28;20709;-84
2022/06/06 05:02:41;;;;;;;26.60;18.60;;;14.80;99.90;;;;;;5074675;28;20028;-84
2022/06/06 05:05:07;;;;;;;25.23;18.63;;;14.80;99.90;;;;;;5074339;28;20422;-84
2022/06/06 05:07:41;;;;;;;26.33;18.92;;;14.80;99.90;;;;;;5093277;28;20039;-83
2022/06/06 05:10:25;;;;;;;28.20;18.02;;;14.90;99.90;;;;;;5075091;28;20032;-84
2022/06/06 05:13:01;;;;;;;24.58;17.25;;;15.10;99.90;;;;;;5091993;28;20028;-83
2022/06/06 05:15:38;;;;;;;19.75;16.20;;;15.10;99.90;;;;;;5074676;28;20035;-84
2022/06/06 05:18:33;;;;;;;22.67;16.88;;;15.20;99.90;;;;;;5091376;28;20031;-82
2022/06/06 05:21:08;;;;;;;21.40;17.20;;;15.20;99.90;;;;;;5074943;28;20123;-84
2022/06/06 05:23:45;;;;;;;25.27;15.57;;;15.30;99.90;;;;;;5091435;28;20024;-84
2022/06/06 05:26:30;;;;;;;18.58;15.20;;;15.50;99.90;;;;;;5091621;28;20036;-84
2022/06/06 05:29:25;;;;;;;20.05;13.90;;;15.60;99.90;;;;;;5074474;28;20421;-84
2022/06/06 05:32:16;;;;;;;21.13;15.27;;;15.50;99.90;;;;;;5074229;28;20035;-84
2022/06/06 05:34:59;;;;;;;21.25;14.63;;;15.60;99.90;;;;;;5090170;28;20466;-84
2022/06/06 05:37:31;;;;;;;19.52;13.80;;;15.90;99.90;;;;;;5074407;28;20135;-85
2022/06/06 05:40:31;;;;;;;19.52;13.45;;;16.10;99.90;;;;;;5074674;28;20031;-84
2022/06/06 05:43:17;;;;;;;12.00;10.25;;;16.30;99.90;;;;;;5074159;28;20028;-84
2022/06/06 05:45:53;;;;;;;16.80;12.27;;;16.60;99.90;;;;;;5050930;28;20423;-84
2022/06/06 05:48:51;;;;;;;15.02;12.38;;;16.90;99.90;;;;;;5074624;28;20085;-84
2022/06/06 05:51:22;;;;;;;13.57;10.98;;;17.20;99.90;;;;;;5074552;28;20032;-85
2022/06/06 05:57:59;;;;;;;16.73;10.10;;;18.10;99.90;;;;;;5093212;28;20055;-85
2022/06/06 06:00:58;;;;;;;16.35;11.48;;;17.90;99.90;;;;;;5050801;28;20131;-85
2022/06/06 06:04:08;;;;;;;16.20;12.60;;;17.50;99.90;;;;;;5074029;28;20070;-85
2022/06/06 06:06:46;;;;;;;14.20;11.50;;;17.10;99.90;;;;;;5073812;28;20395;-85
2022/06/06 06:09:36;;;;;;;12.85;11.00;;;17.20;99.90;;;;;;5078537;28;20028;-85
2022/06/06 06:12:11;;;;;;;17.08;11.25;;;17.50;99.90;;;;;;5078632;28;20032;-85
2022/06/06 06:15:15;;;;;;;17.23;12.13;;;17.70;99.90;;;;;;5078232;28;20032;-84
2022/06/06 06:17:43;;;;;;;16.13;11.50;;;17.70;99.90;;;;;;5095669;28;20074;-84
2022/06/06 06:20:12;;;;;;;14.35;11.55;;;17.90;99.90;;;;;;5078661;28;20119;-84
2022/06/06 06:22:56;;;;;;;13.90;12.32;;;17.90;99.90;;;;;;5078317;28;20032;-85
2022/06/06 06:25:24;;;;;;;13.20;11.50;;;17.60;99.90;;;;;;5078322;28;20032;-85
2022/06/06 06:27:57;;;;;;;18.85;11.25;;;17.30;99.90;;;;;;5078290;28;20131;-85
2022/06/06 06:30:48;;;;;;;14.05;10.95;;;17.30;99.90;;;;;;5094690;28;20034;-84
2022/06/06 06:33:22;;;;;;;14.07;12.43;;;17.10;99.90;;;;;;5077743;28;20491;-81
2022/06/06 06:36:07;;;;;;;21.30;13.13;;;16.80;99.90;;;;;;5094912;28;20042;-84
2022/06/06 06:38:52;;;;;;;20.98;14.07;;;16.70;99.90;;;;;;5077813;28;20032;-84
2022/06/06 06:41:45;;;;;;;19.05;14.38;;;16.50;99.90;;;;;;5094713;28;20024;-85
2022/06/06 06:44:34;;;;;;;15.75;13.10;;;16.20;99.90;;;;;;5094823;28;20111;-85
2022/06/06 06:47:36;;;;;;;17.10;13.43;;;16.20;99.90;;;;;;5077996;28;20081;-85
2022/06/06 06:50:39;;;;;;;17.80;12.73;;;16.20;99.90;;;;;;5095241;28;20420;-84
2022/06/06 06:53:08;;;;;;;16.65;12.88;;;16.10;99.90;;;;;;5026953;28;20127;-85
2022/06/06 06:55:58;;;;;;;13.85;12.35;;;16.00;99.90;;;;;;5077546;28;20063;-84
2022/06/06 06:58:42;;;;;;;16.65;12.48;;;16.00;99.90;;;;;;5094712;28;20024;-85
2022/06/06 07:01:13;;;;;;;18.38;13.18;;;15.90;99.90;;;;;;5077570;28;20081;-86
2022/06/06 07:09:40;;;;;;;10.52;9.40;;;16.60;99.90;;;;;;5094313;28;20760;-86
2022/06/06 07:12:06;;;;;;;12.75;9.65;;;16.80;99.90;;;;;;5094432;28;20024;-86
2022/06/06 07:14:56;;;;;;;14.40;9.73;;;17.10;99.90;;;;;;5076485;28;20116;-86
2022/06/06 07:17:24;;;;;;;12.20;9.95;;;17.20;99.90;;;;;;5076972;28;20039;-86
2022/06/06 07:20:11;;;;;;;17.35;9.95;;;17.20;99.90;;;;;;5075551;28;20690;-86
2022/06/06 07:22:59;;;;;;;19.70;10.45;;;17.10;99.90;;;;;;5076780;28;20182;-86
2022/06/06 07:25:26;;;;;;;13.38;8.90;;;17.30;99.90;;;;;;5077086;28;20119;-86
2022/06/06 07:27:52;;;;;;;15.88;9.82;;;17.30;99.90;;;;;;5077089;28;20115;-85
2022/06/06 07:30:21;;;;;;;12.45;8.73;;;17.60;99.90;;;;;;5076731;28;20132;-85
2022/06/06 07:33:37;;;;;;;12.27;8.90;;;17.70;99.90;;;;;;5094373;28;20032;-86
2022/06/06 07:36:34;;;;;;;12.07;9.25;;;17.70;99.90;;;;;;5077010;28;20090;-87
2022/06/06 07:39:21;;;;;;;10.98;9.02;;;17.60;99.90;;;;;;5093766;28;20028;-86
2022/06/06 07:42:04;;;;;;;11.40;8.75;;;17.70;99.90;;;;;;5076914;28;20036;-86
2022/06/06 07:44:52;;;;;;;14.25;9.45;;;17.80;99.90;;;;;;5076393;28;20028;-86
2022/06/06 07:47:31;;;;;;;12.63;8.82;;;18.00;99.90;;;;;;5093310;28;20570;-86
2022/06/06 07:50:37;;;;;;;13.40;10.10;;;17.90;99.90;;;;;;5076576;28;20032;-86
2022/06/06 07:53:30;;;;;;;12.75;10.30;;;17.50;99.90;;;;;;5053365;28;20040;-86
2022/06/06 07:56:08;;;;;;;10.73;8.85;;;17.60;99.90;;;;;;5076520;28;20059;-86
2022/06/06 07:58:53;;;;;;;21.88;10.73;;;17.60;99.90;;;;;;5076360;28;20024;-85
2022/06/06 08:01:51;;;;;;;14.85;10.75;;;17.60;99.90;;;;;;5076219;28;20089;-85
2022/06/06 08:04:30;;;;;;;18.77;9.85;;;18.00;99.90;;;;;;5075659;28;20085;-85
2022/06/06 08:07:08;;;;;;;11.93;9.38;;;18.80;99.90;;;;;;5075921;28;20031;-86
2022/06/06 08:09:50;;;;;;;20.70;9.60;;;19.40;99.90;;;;;;5093856;28;20017;-85
2022/06/06 08:12:27;;;;;;;11.68;8.80;;;20.20;99.90;;;;;;5075955;28;20046;-85
2022/06/06 08:15:11;;;;;;;10.27;8.52;;;21.00;99.90;;;;;;5076088;28;20034;-86
2022/06/06 08:17:59;;;;;;;14.15;7.45;;;22.20;99.90;;;;;;5076023;28;20032;-86
2022/06/06 08:20:36;;;;;;;14.20;8.80;;;23.40;99.90;;;;;;5075732;28;20139;-84
2022/06/06 08:23:03;;;;;;;14.27;9.00;;;23.10;99.90;;;;;;5075716;28;20649;-84
2022/06/06 08:25:32;;;;;;;11.98;8.23;;;21.70;99.90;;;;;;5092748;28;20031;-84
2022/06/06 08:27:59;;;;;;;9.80;8.18;;;20.70;99.90;;;;;;5092778;28;20032;-85
2022/06/06 08:30:24;;;;;;;12.02;8.02;;;20.30;99.90;;;;;;5075224;28;20039;-85
2022/06/06 08:32:50;;;;;;;11.02;8.50;;;20.30;99.90;;;;;;5076162;28;20032;-85
2022/06/06 08:35:16;;;;;;;13.82;8.70;;;20.40;99.90;;;;;;5075436;28;20111;-85
2022/06/06 08:38:02;;;;;;;13.57;7.95;;;20.50;99.90;;;;;;5075845;28;20043;-85
2022/06/06 08:40:59;;;;;;;10.23;8.07;;;20.60;99.90;;;;;;5092813;28;20028;-84
2022/06/06 08:43:38;;;;;;;9.60;7.22;;;21.10;99.90;;;;;;5034860;28;20040;-83
2022/06/06 08:46:50;;;;;;;7.68;6.97;;;21.00;99.90;;;;;;5075711;28;20028;-83
2022/06/06 08:52:46;;;;;;;11.23;7.72;;;19.40;99.90;;;;;;5092131;28;20070;-83
2022/06/06 08:55:38;;;;;;;15.40;7.43;;;19.60;99.90;;;;;;5090889;28;20035;-84
2022/06/06 08:58:22;;;;;;;9.10;6.75;;;21.50;99.90;;;;;;5091703;28;20080;-83
2022/06/06 09:00:57;;;;;;;7.90;7.10;;;21.10;99.90;;;;;;5074764;28;20028;-83
2022/06/06 09:03:41;;;;;;;10.10;7.63;;;20.50;99.90;;;;;;5074741;28;20150;-83
2022/06/06 09:06:25;;;;;;;9.80;7.93;;;21.00;99.90;;;;;;5092203;28;20379;-85
2022/06/06 09:09:18;;;;;;;9.55;8.25;;;21.00;99.90;;;;;;5091827;28;20070;-85
2022/06/06 09:12:30;;;;;;;8.23;7.43;;;21.20;99.90;;;;;;5091677;28;20078;-85
2022/06/06 09:15:20;;;;;;;16.10;7.50;;;22.60;99.90;;;;;;5074262;28;20032;-85
2022/06/06 09:18:01;;;;;;;11.75;9.02;;;22.20;99.90;;;;;;5090583;28;20596;-86
2022/06/06 09:20:57;;;;;;;13.10;7.68;;;21.30;99.90;;;;;;5091432;28;20480;-86
2022/06/06 09:23:44;;;;;;;9.55;7.38;;;22.00;99.90;;;;;;5074767;28;20501;-85
2022/06/06 09:26:32;;;;;;;12.90;8.05;;;23.40;99.90;;;;;;5074335;28;20419;-83
2022/06/06 09:29:35;;;;;;;10.45;6.60;;;23.70;99.90;;;;;;5074581;28;20063;-83
2022/06/06 09:32:42;;;;;;;12.02;8.73;;;24.00;99.90;;;;;;5074417;28;20038;-83
2022/06/06 09:35:36;;;;;;;10.65;7.82;;;23.60;99.90;;;;;;5073624;28;20502;-84
2022/06/06 09:38:40;;;;;;;10.55;6.82;;;24.60;99.90;;;;;;5074227;28;20040;-83
2022/06/06 09:41:25;;;;;;;9.00;7.97;;;24.50;99.90;;;;;;5073780;28;20089;-83
2022/06/06 09:44:23;;;;;;;7.38;6.70;;;23.20;99.90;;;;;;5073496;28;20047;-84
2022/06/06 09:47:19;;;;;;;9.80;6.50;;;23.70;99.90;;;;;;5063806;28;20044;-83
2022/06/06 09:50:09;;;;;;;8.95;6.85;;;24.70;99.90;;;;;;5074518;28;20082;-84
2022/06/06 09:53:03;;;;;;;7.00;6.13;;;24.50;99.90;;;;;;5091396;28;20032;-84
2022/06/06 09:59:18;;;;;;;6.70;5.00;;;25.50;99.90;;;;;;5013451;28;20535;-84
2022/06/06 10:02:11;;;;;;;9.57;4.53;;;25.80;99.90;;;;;;5091251;28;20024;-84
2022/06/06 10:08:43;;;;;;;10.32;5.00;;;23.80;99.90;;;;;;5093200;28;20066;-83
2022/06/06 10:11:27;;;;;;;11.75;5.07;;;23.40;99.90;;;;;;5074730;28;20032;-84
2022/06/06 10:14:13;;;;;;;9.25;5.30;;;23.00;99.90;;;;;;5073794;28;20028;-85
2022/06/06 10:16:46;;;;;;;13.43;6.00;;;22.80;99.90;;;;;;5074223;28;20040;-84
2022/06/06 10:19:21;;;;;;;7.90;6.00;;;22.30;99.90;;;;;;5074370;28;20040;-85
2022/06/06 10:22:19;;;;;;;10.80;5.72;;;21.60;99.90;;;;;;5073967;28;20442;-85
2022/06/06 10:24:59;;;;;;;8.98;6.32;;;21.80;99.90;;;;;;5090878;28;20064;-85
2022/06/06 10:27:46;;;;;;;5.95;5.38;;;21.90;99.90;;;;;;5090677;28;20024;-84
2022/06/06 10:30:20;;;;;;;8.80;4.75;;;22.60;99.90;;;;;;5090666;28;20077;-84
2022/06/06 10:32:46;;;;;;;7.13;4.28;;;23.90;99.90;;;;;;5090821;28;20063;-85
2022/06/06 10:35:18;;;;;;;5.13;4.63;;;24.40;99.90;;;;;;5073503;28;20074;-84
2022/06/06 10:37:59;;;;;;;6.28;4.53;;;24.80;99.90;;;;;;5074021;28;20024;-85
2022/06/06 10:40:37;;;;;;;7.28;4.38;;;24.10;99.90;;;;;;5073429;28;20421;-85
2022/06/06 10:43:32;;;;;;;5.93;4.82;;;23.00;99.90;;;;;;5090738;28;20040;-85
2022/06/06 10:46:02;;;;;;;6.57;4.80;;;22.70;99.90;;;;;;5090886;28;20034;-85
2022/06/06 10:48:58;;;;;;;8.65;4.68;;;22.90;99.90;;;;;;5073956;28;20053;-85
2022/06/06 10:51:45;;;;;;;11.52;4.90;;;23.00;99.90;;;;;;5090918;28;20032;-85
2022/06/06 10:54:38;;;;;;;6.38;4.07;;;23.10;99.90;;;;;;5076059;28;20093;-85
2022/06/06 10:57:40;;;;;;;5.13;3.45;;;22.90;99.90;;;;;;5077500;28;20055;-85
2022/06/06 11:00:15;;;;;;;6.82;3.10;;;22.40;99.90;;;;;;5094026;28;20500;-85
2022/06/06 11:03:19;;;;;;;5.88;3.00;;;21.90;99.90;;;;;;5077279;28;20032;-85
2022/06/06 11:06:13;;;;;;;10.18;3.47;;;21.40;99.90;;;;;;5077090;28;20375;-84
2022/06/06 11:08:50;;;;;;;7.30;3.38;;;21.10;99.90;;;;;;5095279;28;20067;-84
2022/06/06 11:12:00;;;;;;;4.32;3.10;;;20.80;99.90;;;;;;5095440;28;20050;-85
2022/06/06 11:14:44;;;;;;;6.50;3.53;;;20.80;99.90;;;;;;5094001;28;20040;-85
2022/06/06 11:17:28;;;;;;;7.70;3.75;;;20.80;99.90;;;;;;5077030;28;20764;-84
2022/06/06 11:20:44;;;;;;;7.78;3.78;;;20.60;99.90;;;;;;5076314;28;20379;-84
2022/06/06 11:23:24;;;;;;;5.82;3.72;;;20.40;99.90;;;;;;5058611;28;20130;-85
2022/06/06 11:26:09;;;;;;;8.65;3.55;;;20.70;99.90;;;;;;5076720;28;20039;-84
2022/06/06 11:28:53;;;;;;;5.25;3.42;;;21.90;99.90;;;;;;5076398;28;20039;-84
2022/06/06 11:31:50;;;;;;;7.32;3.03;;;22.90;99.90;;;;;;5076708;28;20138;-84
2022/06/06 11:34:52;;;;;;;8.40;3.40;;;23.40;99.90;;;;;;5076814;28;20428;-85
2022/06/06 11:37:50;;;;;;;9.57;3.30;;;23.50;99.90;;;;;;5077187;28;20024;-85
2022/06/06 11:40:40;;;;;;;7.82;4.00;;;23.30;99.90;;;;;;5093961;28;20020;-84
2022/06/06 11:43:25;;;;;;;7.53;4.07;;;23.10;99.90;;;;;;5094696;28;20024;-85
2022/06/06 11:46:18;;;;;;;6.18;3.47;;;22.20;99.90;;;;;;5076786;28;20395;-85
2022/06/06 11:49:31;;;;;;;11.18;3.83;;;21.80;99.90;;;;;;5076995;28;20499;-84
2022/06/06 11:52:15;;;;;;;6.13;3.40;;;22.90;99.90;;;;;;5095061;28;20024;-85
2022/06/06 11:55:02;;;;;;;7.30;3.95;;;23.70;99.90;;;;;;5075711;28;20090;-86
2022/06/06 11:57:46;;;;;;;8.90;2.88;;;24.20;99.90;;;;;;5076199;28;20035;-85
2022/06/06 12:00:30;;;;;;;4.13;2.75;;;24.60;99.90;;;;;;5076225;28;20028;-85
2022/06/06 12:03:33;;;;;;;8.60;2.90;;;24.50;99.90;;;;;;5076044;28;20050;-85
2022/06/06 12:06:38;;;;;;;5.40;2.15;;;24.70;99.90;;;;;;5074771;28;20050;-84
2022/06/06 12:09:15;;;;;;;9.18;2.35;;;23.60;99.90;;;;;;5092759;28;20057;-85
2022/06/06 12:12:02;;;;;;;4.03;2.28;;;22.30;99.90;;;;;;5076442;28;20086;-85
2022/06/06 12:14:55;;;;;;;4.60;2.47;;;21.70;99.90;;;;;;5092141;28;20054;-85
2022/06/06 12:18:00;;;;;;;5.00;2.55;;;21.20;99.90;;;;;;5092962;28;20024;-85
2022/06/06 12:21:24;;;;;;;10.82;4.10;;;20.50;99.90;;;;;;5075843;28;20403;-84
2022/06/06 12:24:14;;;;;;;9.27;4.63;;;19.00;99.90;;;;;;4998400;28;20559;-85
2022/06/06 12:27:14;;;;;;;18.13;5.97;;;17.60;99.90;;;;;;5014950;28;20040;-85
2022/06/06 12:29:58;;;;;;;11.00;5.75;;;16.40;99.90;;;;;;5064408;28;20042;-85
2022/06/06 12:33:12;;;;;;;7.25;5.43;;;16.00;99.90;;;;;;5075682;28;20476;-85
2022/06/06 12:36:02;;;;;;;8.10;4.53;;;16.60;99.90;;;;;;5075465;28;20035;-86
2022/06/06 12:38:49;;;;;;;5.22;2.83;;;17.50;99.90;;;;;;5075482;28;20107;-85
2022/06/06 12:41:37;;;;;;;3.00;2.47;;;18.50;99.90;;;;;;5075107;28;20097;-85
2022/06/06 12:44:31;;;;;;;4.22;1.88;;;19.80;99.90;;;;;;5074532;28;20028;-85
2022/06/06 12:47:32;;;;;;;4.80;1.80;;;20.90;99.90;;;;;;5078224;28;20075;-85
2022/06/06 12:49:58;;;;;;;2.25;2.05;;;20.40;99.90;;;;;;5070418;28;20071;-85
2022/06/06 12:52:32;;;;;;;4.28;1.83;;;19.90;99.90;;;;;;5075104;28;20068;-85
2022/06/06 13:01:40;;;;;;;2.92;2.15;;;19.50;99.90;;;;;;5092588;28;20833;-85
2022/06/06 13:04:38;;;;;;;3.80;2.00;;;19.80;99.90;;;;;;5074864;28;20051;-85
2022/06/06 13:07:37;;;;;;;2.67;2.15;;;20.10;99.90;;;;;;5090002;28;20039;-85
2022/06/06 13:10:14;;;;;;;1.98;1.73;;;20.40;99.90;;;;;;5075149;28;20031;-84
2022/06/06 13:12:58;;;;;;;2.95;1.83;;;20.40;99.90;;;;;;5075081;28;20028;-84
2022/06/06 13:15:32;;;;;;;12.05;1.92;;;20.60;99.90;;;;;;5091494;28;20039;-84
2022/06/06 13:18:10;;;;;;;2.15;1.33;;;20.40;99.90;;;;;;5074744;28;20074;-85
2022/06/06 13:20:43;;;;;;;2.10;1.60;;;20.20;99.90;;;;;;5091925;28;20690;-84
2022/06/06 13:23:27;;;;;;;2.42;1.73;;;20.00;99.90;;;;;;5074784;28;20396;-85
2022/06/06 13:26:24;;;;;;;2.72;2.40;;;19.70;99.90;;;;;;5075161;28;20032;-85
2022/06/06 13:28:53;;;;;;;5.15;2.38;;;19.30;99.90;;;;;;5091470;28;20032;-84
2022/06/06 13:31:21;;;;;;;2.60;2.13;;;19.00;99.90;;;;;;5074563;28;20062;-84
2022/06/06 13:34:12;;;;;;;3.17;2.30;;;19.10;99.90;;;;;;5090607;28;20032;-84
2022/06/06 13:36:37;;;;;;;6.93;2.35;;;19.50;99.90;;;;;;5074480;28;20494;-85
2022/06/06 13:39:30;;;;;;;3.42;2.55;;;20.90;99.90;;;;;;5074385;28;20024;-84
2022/06/06 13:42:26;;;;;;;2.80;2.15;;;21.90;99.90;;;;;;5091191;28;20024;-84
2022/06/06 13:45:16;;;;;;;4.90;2.35;;;22.20;99.90;;;;;;5074213;28;20051;-84
2022/06/06 13:48:19;;;;;;;5.77;2.70;;;22.80;99.90;;;;;;5074614;28;20105;-82
2022/06/06 13:50:57;;;;;;;3.47;2.40;;;22.30;99.90;;;;;;5074778;28;20032;-84
2022/06/06 13:57:13;;;;;;;12.15;7.68;;;22.30;99.90;;;;;;5092390;28;20550;-84
2022/06/06 14:00:02;;;;;;;2.75;2.53;;;22.40;99.90;;;;;;5074953;28;20094;-85
2022/06/06 14:02:44;;;;;;;;;;;23.60;99.90;;;;;;5093157;28;20497;-82
2022/06/06 14:05:24;;;;;;;6.90;3.15;;;23.90;99.90;;;;;;5092745;28;20006;-83
2022/06/06 14:08:07;;;;;;;4.22;3.22;;;23.60;99.90;;;;;;5091172;28;20035;-83
2022/06/06 14:10:47;;;;;;;6.78;3.38;;;22.50;99.90;;;;;;5074204;28;20108;-85
2022/06/06 14:13:45;;;;;;;6.45;3.20;;;21.70;99.90;;;;;;5073853;28;20039;-85
2022/06/06 14:16:41;;;;;;;6.07;3.20;;;21.80;99.90;;;;;;5029576;28;20044;-84
2022/06/06 14:19:18;;;;;;;8.65;3.38;;;21.90;99.90;;;;;;5090920;28;20483;-85
2022/06/06 14:22:01;;;;;;;5.50;4.10;;;21.90;99.90;;;;;;5073913;28;20032;-85
2022/06/06 14:24:29;;;;;;;9.40;3.75;;;21.80;99.90;;;;;;5090249;28;20036;-85
2022/06/06 14:27:00;;;;;;;4.15;3.17;;;22.80;99.90;;;;;;5074275;28;20028;-85
2022/06/06 14:29:35;;;;;;;9.05;2.90;;;23.00;99.90;;;;;;5093688;28;20093;-86